Oriana — ZCDU9 — position and weather

sailwx.info

Track history (hours):
 
Tides and Currents Weather Stations Pressure Air Temp Water Temp Dewpoint Dewpoint Depression Visibility Wind Speed Wind Dir Waves Ship Positions

Oriana (Bermuda)

Last reported at 2017-Jun-24 13:28 UTC. Time now 2017-Jun-24 13:50 UTC.
Position N 50°54' W 001°26'.

Length 261 m; beam 32.2 m; draft 8.2 m.

Type: Ship. MMSI: 310529000.

Date/timePositionNaut miles runAvg speedWind from/ knotsBaromVisibWave heightAir tempDewpointWater temp
2017-Jun-24 13:28N 50°54' W 001°26'0 0.0
2017-Jun-24 12:58N 50°54' W 001°26'0 0.0
2017-Jun-24 12:28N 50°54' W 001°26'0 0.0
2017-Jun-24 11:58N 50°54' W 001°26'0 0.0
2017-Jun-24 11:28N 50°54' W 001°26'0 0.0
2017-Jun-24 10:58N 50°54' W 001°26'0 0.0
2017-Jun-24 10:28N 50°54' W 001°26'0 0.0
2017-Jun-24 09:58N 50°54' W 001°26'0 0.0
2017-Jun-24 09:28N 50°54' W 001°26'0 0.0
2017-Jun-24 08:58N 50°54' W 001°26'0 0.0
2017-Jun-24 08:25N 50°54' W 001°26'0 0.0
2017-Jun-24 07:58N 50°54' W 001°26'0 0.0
2017-Jun-24 07:28N 50°54' W 001°26'0 0.0
2017-Jun-24 06:58N 50°54' W 001°26'0 0.0
2017-Jun-24 06:28N 50°54' W 001°26'0 0.0
2017-Jun-24 05:58N 50°54' W 001°26'0 0.0
2017-Jun-24 05:30N 50°54' W 001°26'0 0.3
2017-Jun-24 05:00N 50°54' W 001°26'4 8.8
2017-Jun-24 04:31N 50°51' W 001°21'5 9.2
2017-Jun-24 04:00N 50°47' W 001°19'714.6
2017-Jun-24 03:31N 50°45' W 001°07'714.0
2017-Jun-24 03:00N 50°42' W 000°58'5 9.9
2017-Jun-24 02:30N 50°37' W 000°59'612.8
2017-Jun-24 02:00N 50°33' W 001°06'713.5
2017-Jun-24 01:29N 50°30' W 001°16'4214.3
2017-Jun-23 22:32N 50°09' W 002°14'116.4
2017-Jun-23 22:31N 50°09' W 002°14'1315.2
2017-Jun-23 21:38N 49°57' W 002°23'417.3
2017-Jun-23 21:26N 49°56' W 002°29'817.3
2017-Jun-23 20:58N 49°53' W 002°40'817.1
2017-Jun-23 20:31N 49°51' W 002°52'816.3
2017-Jun-23 20:01N 49°46' W 003°02'917.2
2017-Jun-23 19:30N 49°41' W 003°13'917.4
2017-Jun-23 18:59N 49°35' W 003°24'3316.6
2017-Jun-23 17:00N 49°12' W 004°00'3619.8 230 / 221021.210.8 17.515.817.0
2017-Jun-23 15:09N 48°53' W 004°47'421.9
2017-Jun-23 14:58N 48°50' W 004°52'2122.1
2017-Jun-23 14:00N 48°37' W 005°17'1122.7
2017-Jun-23 13:30N 48°28' W 005°28'5221.8
2017-Jun-23 11:07N 47°43' W 006°07'321.4
2017-Jun-23 10:59N 47°41' W 006°09'11322.6
2017-Jun-23 06:00N 46°00' W 007°24'34619.7 280 / 81022.910.8 18.014.618.0
2017-Jun-22 12:28N 40°31' W 009°52'1620.8
2017-Jun-22 11:43N 40°16' W 009°53'520.7
2017-Jun-22 11:28N 40°11' W 009°52'1020.7
2017-Jun-22 11:00N 40°01' W 009°53'3220.7
2017-Jun-22 09:29N 39°29' W 009°54'1020.4
2017-Jun-22 09:00N 39°20' W 009°53'1020.4
2017-Jun-22 08:30N 39°10' W 009°53'1020.4
2017-Jun-22 08:00N 38°59' W 009°53'1020.3
2017-Jun-22 07:30N 38°49' W 009°53'1019.3
2017-Jun-22 07:00N 38°40' W 009°51'918.9
2017-Jun-22 06:30N 38°30' W 009°49'1019.1
2017-Jun-22 06:00N 38°21' W 009°46'918.6
2017-Jun-22 05:30N 38°12' W 009°43'918.6
2017-Jun-22 05:00N 38°03' W 009°40'918.9
2017-Jun-22 04:30N 37°54' W 009°38'1120.0
2017-Jun-22 03:57N 37°43' W 009°35'3221.5
2017-Jun-22 02:27N 37°11' W 009°25'1021.7
2017-Jun-22 02:00N 37°02' W 009°23'2720.0
2017-Jun-22 00:39N 36°42' W 009°00'2520.9
2017-Jun-21 23:25N 36°34' W 008°30'1020.9
2017-Jun-21 22:56N 36°31' W 008°17'1120.7
2017-Jun-21 22:25N 36°28' W 008°05'820.9
2017-Jun-21 22:00N 36°25' W 007°55'1020.7
2017-Jun-21 21:30N 36°21' W 007°43'1521.4
2017-Jun-21 20:47N 36°15' W 007°25'621.5
2017-Jun-21 20:29N 36°13' W 007°18'1121.4
2017-Jun-21 20:00N 36°10' W 007°05'2121.3
2017-Jun-21 19:00N 36°04' W 006°40'3720.4
2017-Jun-21 17:12N 35°58' W 005°55'520.0
2017-Jun-21 16:58N 35°58' W 005°49'919.2
2017-Jun-21 16:30N 35°58' W 005°38'917.7
2017-Jun-21 16:00N 35°60' W 005°28'815.5
2017-Jun-21 15:31N 36°07' W 005°23'2 4.8
2017-Jun-21 15:00N 36°09' W 005°22'0 0.0
2017-Jun-21 13:59N 36°09' W 005°22'0 0.0
2017-Jun-21 13:29N 36°09' W 005°22'0 0.0
2017-Jun-21 12:59N 36°09' W 005°22'0 0.0
2017-Jun-21 12:29N 36°09' W 005°22'0 0.0
2017-Jun-21 11:58N 36°09' W 005°22'0 0.0
2017-Jun-21 11:28N 36°09' W 005°22'0 0.0
2017-Jun-21 10:55N 36°09' W 005°22'0 0.0
2017-Jun-21 10:28N 36°09' W 005°22'0 0.0
2017-Jun-21 09:58N 36°09' W 005°22'0 0.0
2017-Jun-21 09:28N 36°09' W 005°22'0 0.0
2017-Jun-21 08:59N 36°09' W 005°22'0 0.0
2017-Jun-21 08:30N 36°09' W 005°22'0 0.0
2017-Jun-21 08:00N 36°09' W 005°22'0 0.0
2017-Jun-21 07:26N 36°09' W 005°22'0 0.0
2017-Jun-21 06:56N 36°09' W 005°22'0 0.0
2017-Jun-21 06:29N 36°09' W 005°22'0 0.0
2017-Jun-21 06:00N 36°09' W 005°22'1 2.1
2017-Jun-21 05:24N 36°08' W 005°23'4 9.1
2017-Jun-21 05:00N 36°05' W 005°21'713.8
2017-Jun-21 04:30N 36°03' W 005°13'5616.0
2017-Jun-21 01:00N 36°18' W 004°06'12316.8 040 / 61021.410.8 23.021.523.0
2017-Jun-20 17:41N 36°32' W 001°34'317.3
2017-Jun-20 17:29N 36°33' W 001°30'4618.0
2017-Jun-20 14:54N 36°42' W 000°33'820.0
2017-Jun-20 14:30N 36°44' W 000°23'1919.3
2017-Jun-20 13:30N 36°48' E 000°00'919.0
2017-Jun-20 13:00N 36°50' E 000°12'918.7
2017-Jun-20 12:30N 36°52' E 000°23'918.1
2017-Jun-20 12:00N 36°53' E 000°34'917.9
2017-Jun-20 11:30N 36°55' E 000°45'917.9
2017-Jun-20 11:00N 36°57' E 000°56'918.5
2017-Jun-20 10:30N 36°59' E 001°07'1019.0
2017-Jun-20 10:00N 37°01' E 001°19'1019.3
2017-Jun-20 09:30N 37°03' E 001°31'1019.5
2017-Jun-20 09:00N 37°06' E 001°43'1019.6
2017-Jun-20 08:30N 37°08' E 001°55'1019.5
2017-Jun-20 08:00N 37°09' E 002°07'7918.7
2017-Jun-20 03:47N 37°22' E 003°45'1218.7
2017-Jun-20 03:10N 37°23' E 003°59'518.6
2017-Jun-20 02:52N 37°24' E 004°06'718.8
2017-Jun-20 02:30N 37°24' E 004°15'918.8
2017-Jun-20 02:00N 37°25' E 004°27'3518.9
2017-Jun-20 00:09N 37°29' E 005°10'13018.2
2017-Jun-19 17:00N 37°42' E 007°54'1832.0 080 / 171018.910.8 25.018.823.0
2017-Jun-19 16:26N 37°46' E 008°16'819.3
2017-Jun-19 16:00N 37°47' E 008°27'24719.1
2017-Jun-19 03:06N 36°48' E 013°28'321.0
2017-Jun-19 02:58N 36°47' E 013°31'1021.1
2017-Jun-19 02:30N 36°43' E 013°43'1020.8
2017-Jun-19 02:00N 36°40' E 013°55'1020.4
2017-Jun-19 01:30N 36°37' E 014°07'1020.2
2017-Jun-19 01:00N 36°34' E 014°19'1019.9
2017-Jun-19 00:30N 36°30' E 014°30'1019.9
2017-Jun-19 00:00N 36°26' E 014°41'1019.9
2017-Jun-18 23:29N 36°22' E 014°53'  
2017-Jun-16 18:38N 43°54' E 014°36'322.4
2017-Jun-16 18:30N 43°56' E 014°34'1222.4
2017-Jun-16 17:59N 44°07' E 014°28'21 1.5
2017-Jun-16 04:07N 44°15' E 014°55'417.2
2017-Jun-16 03:52N 44°17' E 014°50'1616.9
2017-Jun-16 02:56N 44°22' E 014°29'918.1
2017-Jun-16 02:25N 44°15' E 014°22'920.4
2017-Jun-16 02:00N 44°06' E 014°19'1019.6
2017-Jun-16 01:30N 44°02' E 014°08'1020.4
2017-Jun-16 01:00N 44°09' E 013°58'1121.2
2017-Jun-16 00:30N 44°18' E 013°50'1121.2
2017-Jun-16 00:00N 44°27' E 013°42'1121.2
2017-Jun-15 23:30N 44°36' E 013°34'1121.2
2017-Jun-15 23:00N 44°45' E 013°26'1121.3
2017-Jun-15 22:30N 44°54' E 013°18'1121.2
2017-Jun-15 22:00N 45°03' E 013°09'1021.0
2017-Jun-15 21:30N 45°12' E 013°03'1121.1
2017-Jun-15 21:00N 45°23' E 013°01'1020.4
2017-Jun-15 20:30N 45°29' E 013°12'1020.0
2017-Jun-15 20:00N 45°35' E 013°24'1019.8
2017-Jun-15 19:30N 45°39' E 013°37'611.9
2017-Jun-15 18:59N 45°39' E 013°46'0 0.6
2017-Jun-15 18:30N 45°39' E 013°46'0 0.0
2017-Jun-15 18:00N 45°39' E 013°46'0 0.0
2017-Jun-15 17:24N 45°39' E 013°46'0 0.0
2017-Jun-15 17:00N 45°39' E 013°46'0 0.0
2017-Jun-15 16:30N 45°39' E 013°46'0 0.0
2017-Jun-15 16:00N 45°39' E 013°46'0 0.0
2017-Jun-15 15:29N 45°39' E 013°46'0 0.0
2017-Jun-15 14:59N 45°39' E 013°46'0 0.0
2017-Jun-15 14:30N 45°39' E 013°46'0 0.0
2017-Jun-15 13:29N 45°39' E 013°46'0 0.0
2017-Jun-15 12:59N 45°39' E 013°46'0 0.0
2017-Jun-15 12:29N 45°39' E 013°46'0 0.0
2017-Jun-15 11:58N 45°39' E 013°46'0 0.0
2017-Jun-15 11:30N 45°39' E 013°46'0 0.0
2017-Jun-15 10:56N 45°39' E 013°46'0 0.0
2017-Jun-15 10:27N 45°39' E 013°46'0 0.0
2017-Jun-15 09:58N 45°39' E 013°46'0 0.0
2017-Jun-15 09:30N 45°39' E 013°46'0 0.0
2017-Jun-15 08:45N 45°39' E 013°46'0 0.0
2017-Jun-15 08:29N 45°39' E 013°46'0 0.0
2017-Jun-15 07:59N 45°39' E 013°46'0 0.0
2017-Jun-15 07:29N 45°39' E 013°46'0 0.0
2017-Jun-15 06:52N 45°39' E 013°46'0 0.1
2017-Jun-15 06:31N 45°39' E 013°46'3 4.9
2017-Jun-15 06:00N 45°39' E 013°42'510.7
2017-Jun-15 05:30N 45°36' E 013°36'611.5
2017-Jun-15 05:00N 45°33' E 013°29'510.9
2017-Jun-15 04:30N 45°30' E 013°22'611.8
2017-Jun-15 04:00N 45°27' E 013°15'612.1
2017-Jun-15 03:30N 45°23' E 013°08'611.8
2017-Jun-15 03:00N 45°18' E 013°11'612.0
2017-Jun-15 02:30N 45°12' E 013°13'612.1
2017-Jun-15 02:00N 45°06' E 013°14'611.5
2017-Jun-15 01:30N 45°01' E 013°08'612.8
2017-Jun-15 01:00N 44°58' E 013°00'612.5
2017-Jun-15 00:30N 44°56' E 012°52'612.8
2017-Jun-15 00:00N 45°01' E 012°47'612.6
2017-Jun-14 23:30N 45°06' E 012°42'612.2
2017-Jun-14 23:00N 45°09' E 012°35'611.2
2017-Jun-14 22:30N 45°14' E 012°30'613.2
2017-Jun-14 22:00N 45°20' E 012°30'611.5
2017-Jun-14 21:30N 45°25' E 012°26'3 6.2
2017-Jun-14 21:00N 45°26' E 012°21'2 4.2
2017-Jun-14 20:30N 45°26' E 012°18'0 0.5
2017-Jun-14 19:48N 45°26' E 012°19'0 0.0
2017-Jun-14 19:30N 45°26' E 012°19'0 0.0
2017-Jun-14 19:00N 45°26' E 012°19'0 0.0
2017-Jun-14 18:30N 45°26' E 012°19'0 0.0
2017-Jun-14 18:00N 45°26' E 012°19'0 0.0
2017-Jun-14 17:30N 45°26' E 012°19'0 0.0
2017-Jun-14 16:54N 45°26' E 012°19'0 0.0
2017-Jun-14 16:21N 45°26' E 012°19'0 0.0
2017-Jun-14 16:00N 45°26' E 012°19'0 0.0
2017-Jun-14 15:30N 45°26' E 012°19'0 0.0
2017-Jun-14 15:00N 45°26' E 012°19'0 0.0
2017-Jun-14 13:56N 45°26' E 012°19'  
Track history (hours):
 
Tides and Currents Weather Stations Pressure Air Temp Water Temp Dewpoint Dewpoint Depression Visibility Wind Speed Wind Dir Waves Ship Positions

Oriana (Bermuda)

Last reported at 2017-Jun-24 13:28 UTC. Time now 2017-Jun-24 13:50 UTC.
Position N 50°54' W 001°26'.

Length 261 m; beam 32.2 m; draft 8.2 m.

Type: Ship. MMSI: 310529000.

Date/timePositionNaut miles runAvg speedWind from/ knotsBaromVisibWave heightAir tempDewpointWater temp
2017-Jun-24 13:28N 50°54' W 001°26'0 0.0
2017-Jun-24 12:58N 50°54' W 001°26'0 0.0
2017-Jun-24 12:28N 50°54' W 001°26'0 0.0
2017-Jun-24 11:58N 50°54' W 001°26'0 0.0
2017-Jun-24 11:28N 50°54' W 001°26'0 0.0
2017-Jun-24 10:58N 50°54' W 001°26'0 0.0
2017-Jun-24 10:28N 50°54' W 001°26'0 0.0
2017-Jun-24 09:58N 50°54' W 001°26'0 0.0
2017-Jun-24 09:28N 50°54' W 001°26'0 0.0
2017-Jun-24 08:58N 50°54' W 001°26'0 0.0
2017-Jun-24 08:25N 50°54' W 001°26'0 0.0
2017-Jun-24 07:58N 50°54' W 001°26'0 0.0
2017-Jun-24 07:28N 50°54' W 001°26'0 0.0
2017-Jun-24 06:58N 50°54' W 001°26'0 0.0
2017-Jun-24 06:28N 50°54' W 001°26'0 0.0
2017-Jun-24 05:58N 50°54' W 001°26'0 0.0
2017-Jun-24 05:30N 50°54' W 001°26'0 0.3
2017-Jun-24 05:00N 50°54' W 001°26'4 8.8
2017-Jun-24 04:31N 50°51' W 001°21'5 9.2
2017-Jun-24 04:00N 50°47' W 001°19'714.6
2017-Jun-24 03:31N 50°45' W 001°07'714.0
2017-Jun-24 03:00N 50°42' W 000°58'5 9.9
2017-Jun-24 02:30N 50°37' W 000°59'612.8
2017-Jun-24 02:00N 50°33' W 001°06'713.5
2017-Jun-24 01:29N 50°30' W 001°16'4214.3
2017-Jun-23 22:32N 50°09' W 002°14'116.4
2017-Jun-23 22:31N 50°09' W 002°14'1315.2
2017-Jun-23 21:38N 49°57' W 002°23'417.3
2017-Jun-23 21:26N 49°56' W 002°29'817.3
2017-Jun-23 20:58N 49°53' W 002°40'817.1
2017-Jun-23 20:31N 49°51' W 002°52'816.3
2017-Jun-23 20:01N 49°46' W 003°02'917.2
2017-Jun-23 19:30N 49°41' W 003°13'917.4
2017-Jun-23 18:59N 49°35' W 003°24'3316.6
2017-Jun-23 17:00N 49°12' W 004°00'3619.8 230 / 221021.210.8 17.515.817.0
2017-Jun-23 15:09N 48°53' W 004°47'421.9
2017-Jun-23 14:58N 48°50' W 004°52'2122.1
2017-Jun-23 14:00N 48°37' W 005°17'1122.7
2017-Jun-23 13:30N 48°28' W 005°28'5221.8
2017-Jun-23 11:07N 47°43' W 006°07'321.4
2017-Jun-23 10:59N 47°41' W 006°09'11322.6
2017-Jun-23 06:00N 46°00' W 007°24'34619.7 280 / 81022.910.8 18.014.618.0
2017-Jun-22 12:28N 40°31' W 009°52'1620.8
2017-Jun-22 11:43N 40°16' W 009°53'520.7
2017-Jun-22 11:28N 40°11' W 009°52'1020.7
2017-Jun-22 11:00N 40°01' W 009°53'3220.7
2017-Jun-22 09:29N 39°29' W 009°54'1020.4
2017-Jun-22 09:00N 39°20' W 009°53'1020.4
2017-Jun-22 08:30N 39°10' W 009°53'1020.4
2017-Jun-22 08:00N 38°59' W 009°53'1020.3
2017-Jun-22 07:30N 38°49' W 009°53'1019.3
2017-Jun-22 07:00N 38°40' W 009°51'918.9
2017-Jun-22 06:30N 38°30' W 009°49'1019.1
2017-Jun-22 06:00N 38°21' W 009°46'918.6
2017-Jun-22 05:30N 38°12' W 009°43'918.6
2017-Jun-22 05:00N 38°03' W 009°40'918.9
2017-Jun-22 04:30N 37°54' W 009°38'1120.0
2017-Jun-22 03:57N 37°43' W 009°35'3221.5
2017-Jun-22 02:27N 37°11' W 009°25'1021.7
2017-Jun-22 02:00N 37°02' W 009°23'2720.0
2017-Jun-22 00:39N 36°42' W 009°00'2520.9
2017-Jun-21 23:25N 36°34' W 008°30'1020.9
2017-Jun-21 22:56N 36°31' W 008°17'1120.7
2017-Jun-21 22:25N 36°28' W 008°05'820.9
2017-Jun-21 22:00N 36°25' W 007°55'1020.7
2017-Jun-21 21:30N 36°21' W 007°43'1521.4
2017-Jun-21 20:47N 36°15' W 007°25'621.5
2017-Jun-21 20:29N 36°13' W 007°18'1121.4
2017-Jun-21 20:00N 36°10' W 007°05'2121.3
2017-Jun-21 19:00N 36°04' W 006°40'3720.4
2017-Jun-21 17:12N 35°58' W 005°55'520.0
2017-Jun-21 16:58N 35°58' W 005°49'919.2
2017-Jun-21 16:30N 35°58' W 005°38'917.7
2017-Jun-21 16:00N 35°60' W 005°28'815.5
2017-Jun-21 15:31N 36°07' W 005°23'2 4.8
2017-Jun-21 15:00N 36°09' W 005°22'0 0.0
2017-Jun-21 13:59N 36°09' W 005°22'0 0.0
2017-Jun-21 13:29N 36°09' W 005°22'0 0.0
2017-Jun-21 12:59N 36°09' W 005°22'0 0.0
2017-Jun-21 12:29N 36°09' W 005°22'0 0.0
2017-Jun-21 11:58N 36°09' W 005°22'0 0.0
2017-Jun-21 11:28N 36°09' W 005°22'0 0.0
2017-Jun-21 10:55N 36°09' W 005°22'0 0.0
2017-Jun-21 10:28N 36°09' W 005°22'0 0.0
2017-Jun-21 09:58N 36°09' W 005°22'0 0.0
2017-Jun-21 09:28N 36°09' W 005°22'0 0.0
2017-Jun-21 08:59N 36°09' W 005°22'0 0.0
2017-Jun-21 08:30N 36°09' W 005°22'0 0.0
2017-Jun-21 08:00N 36°09' W 005°22'0 0.0
2017-Jun-21 07:26N 36°09' W 005°22'0 0.0
2017-Jun-21 06:56N 36°09' W 005°22'0 0.0
2017-Jun-21 06:29N 36°09' W 005°22'0 0.0
2017-Jun-21 06:00N 36°09' W 005°22'1 2.1
2017-Jun-21 05:24N 36°08' W 005°23'4 9.1
2017-Jun-21 05:00N 36°05' W 005°21'713.8
2017-Jun-21 04:30N 36°03' W 005°13'5616.0
2017-Jun-21 01:00N 36°18' W 004°06'12316.8 040 / 61021.410.8 23.021.523.0
2017-Jun-20 17:41N 36°32' W 001°34'317.3
2017-Jun-20 17:29N 36°33' W 001°30'4618.0
2017-Jun-20 14:54N 36°42' W 000°33'820.0
2017-Jun-20 14:30N 36°44' W 000°23'1919.3
2017-Jun-20 13:30N 36°48' E 000°00'919.0
2017-Jun-20 13:00N 36°50' E 000°12'918.7
2017-Jun-20 12:30N 36°52' E 000°23'918.1
2017-Jun-20 12:00N 36°53' E 000°34'917.9
2017-Jun-20 11:30N 36°55' E 000°45'917.9
2017-Jun-20 11:00N 36°57' E 000°56'918.5
2017-Jun-20 10:30N 36°59' E 001°07'1019.0
2017-Jun-20 10:00N 37°01' E 001°19'1019.3
2017-Jun-20 09:30N 37°03' E 001°31'1019.5
2017-Jun-20 09:00N 37°06' E 001°43'1019.6
2017-Jun-20 08:30N 37°08' E 001°55'1019.5
2017-Jun-20 08:00N 37°09' E 002°07'7918.7
2017-Jun-20 03:47N 37°22' E 003°45'1218.7
2017-Jun-20 03:10N 37°23' E 003°59'518.6
2017-Jun-20 02:52N 37°24' E 004°06'718.8
2017-Jun-20 02:30N 37°24' E 004°15'918.8
2017-Jun-20 02:00N 37°25' E 004°27'3518.9
2017-Jun-20 00:09N 37°29' E 005°10'13018.2
2017-Jun-19 17:00N 37°42' E 007°54'1832.0 080 / 171018.910.8 25.018.823.0
2017-Jun-19 16:26N 37°46' E 008°16'819.3
2017-Jun-19 16:00N 37°47' E 008°27'24719.1
2017-Jun-19 03:06N 36°48' E 013°28'321.0
2017-Jun-19 02:58N 36°47' E 013°31'1021.1
2017-Jun-19 02:30N 36°43' E 013°43'1020.8
2017-Jun-19 02:00N 36°40' E 013°55'1020.4
2017-Jun-19 01:30N 36°37' E 014°07'1020.2
2017-Jun-19 01:00N 36°34' E 014°19'1019.9
2017-Jun-19 00:30N 36°30' E 014°30'1019.9
2017-Jun-19 00:00N 36°26' E 014°41'1019.9
2017-Jun-18 23:29N 36°22' E 014°53'  
2017-Jun-16 18:38N 43°54' E 014°36'322.4
2017-Jun-16 18:30N 43°56' E 014°34'1222.4
2017-Jun-16 17:59N 44°07' E 014°28'21 1.5
2017-Jun-16 04:07N 44°15' E 014°55'417.2
2017-Jun-16 03:52N 44°17' E 014°50'1616.9
2017-Jun-16 02:56N 44°22' E 014°29'918.1
2017-Jun-16 02:25N 44°15' E 014°22'920.4
2017-Jun-16 02:00N 44°06' E 014°19'1019.6
2017-Jun-16 01:30N 44°02' E 014°08'1020.4
2017-Jun-16 01:00N 44°09' E 013°58'1121.2
2017-Jun-16 00:30N 44°18' E 013°50'1121.2
2017-Jun-16 00:00N 44°27' E 013°42'1121.2
2017-Jun-15 23:30N 44°36' E 013°34'1121.2
2017-Jun-15 23:00N 44°45' E 013°26'1121.3
2017-Jun-15 22:30N 44°54' E 013°18'1121.2
2017-Jun-15 22:00N 45°03' E 013°09'1021.0
2017-Jun-15 21:30N 45°12' E 013°03'1121.1
2017-Jun-15 21:00N 45°23' E 013°01'1020.4
2017-Jun-15 20:30N 45°29' E 013°12'1020.0
2017-Jun-15 20:00N 45°35' E 013°24'1019.8
2017-Jun-15 19:30N 45°39' E 013°37'611.9
2017-Jun-15 18:59N 45°39' E 013°46'0 0.6
2017-Jun-15 18:30N 45°39' E 013°46'0 0.0
2017-Jun-15 18:00N 45°39' E 013°46'0 0.0
2017-Jun-15 17:24N 45°39' E 013°46'0 0.0
2017-Jun-15 17:00N 45°39' E 013°46'0 0.0
2017-Jun-15 16:30N 45°39' E 013°46'0 0.0
2017-Jun-15 16:00N 45°39' E 013°46'0 0.0
2017-Jun-15 15:29N 45°39' E 013°46'0 0.0
2017-Jun-15 14:59N 45°39' E 013°46'0 0.0
2017-Jun-15 14:30N 45°39' E 013°46'0 0.0
2017-Jun-15 13:29N 45°39' E 013°46'0 0.0
2017-Jun-15 12:59N 45°39' E 013°46'0 0.0
2017-Jun-15 12:29N 45°39' E 013°46'0 0.0
2017-Jun-15 11:58N 45°39' E 013°46'0 0.0
2017-Jun-15 11:30N 45°39' E 013°46'0 0.0
2017-Jun-15 10:56N 45°39' E 013°46'0 0.0
2017-Jun-15 10:27N 45°39' E 013°46'0 0.0
2017-Jun-15 09:58N 45°39' E 013°46'0 0.0
2017-Jun-15 09:30N 45°39' E 013°46'0 0.0
2017-Jun-15 08:45N 45°39' E 013°46'0 0.0
2017-Jun-15 08:29N 45°39' E 013°46'0 0.0
2017-Jun-15 07:59N 45°39' E 013°46'0 0.0
2017-Jun-15 07:29N 45°39' E 013°46'0 0.0
2017-Jun-15 06:52N 45°39' E 013°46'0 0.1
2017-Jun-15 06:31N 45°39' E 013°46'3 4.9
2017-Jun-15 06:00N 45°39' E 013°42'510.7
2017-Jun-15 05:30N 45°36' E 013°36'611.5
2017-Jun-15 05:00N 45°33' E 013°29'510.9
2017-Jun-15 04:30N 45°30' E 013°22'611.8
2017-Jun-15 04:00N 45°27' E 013°15'612.1
2017-Jun-15 03:30N 45°23' E 013°08'611.8
2017-Jun-15 03:00N 45°18' E 013°11'612.0
2017-Jun-15 02:30N 45°12' E 013°13'612.1
2017-Jun-15 02:00N 45°06' E 013°14'611.5
2017-Jun-15 01:30N 45°01' E 013°08'612.8
2017-Jun-15 01:00N 44°58' E 013°00'612.5
2017-Jun-15 00:30N 44°56' E 012°52'612.8
2017-Jun-15 00:00N 45°01' E 012°47'612.6
2017-Jun-14 23:30N 45°06' E 012°42'612.2
2017-Jun-14 23:00N 45°09' E 012°35'611.2
2017-Jun-14 22:30N 45°14' E 012°30'613.2
2017-Jun-14 22:00N 45°20' E 012°30'611.5
2017-Jun-14 21:30N 45°25' E 012°26'3 6.2
2017-Jun-14 21:00N 45°26' E 012°21'2 4.2
2017-Jun-14 20:30N 45°26' E 012°18'0 0.5
2017-Jun-14 19:48N 45°26' E 012°19'0 0.0
2017-Jun-14 19:30N 45°26' E 012°19'0 0.0
2017-Jun-14 19:00N 45°26' E 012°19'0 0.0
2017-Jun-14 18:30N 45°26' E 012°19'0 0.0
2017-Jun-14 18:00N 45°26' E 012°19'0 0.0
2017-Jun-14 17:30N 45°26' E 012°19'0 0.0
2017-Jun-14 16:54N 45°26' E 012°19'0 0.0
2017-Jun-14 16:21N 45°26' E 012°19'0 0.0
2017-Jun-14 16:00N 45°26' E 012°19'0 0.0
2017-Jun-14 15:30N 45°26' E 012°19'0 0.0
2017-Jun-14 15:00N 45°26' E 012°19'0 0.0
2017-Jun-14 13:56N 45°26' E 012°19'  

Dump ship's entire track history